sensor_id;sensor_type;location;lat;lon;timestamp;P1;durP1;ratioP1;P2;durP2;ratioP2
4603;SDS011;2314;48.272;11.562;2022-09-06T00:01:42;121.30;;;5.90;;
4603;SDS011;2314;48.272;11.562;2022-09-06T00:04:10;123.40;;;6.20;;
4603;SDS011;2314;48.272;11.562;2022-09-06T00:06:37;122.27;;;6.00;;
4603;SDS011;2314;48.272;11.562;2022-09-06T00:09:05;121.47;;;5.67;;
4603;SDS011;2314;48.272;11.562;2022-09-06T00:11:32;121.63;;;6.03;;
4603;SDS011;2314;48.272;11.562;2022-09-06T00:13:59;123.90;;;6.43;;
4603;SDS011;2314;48.272;11.562;2022-09-06T00:16:26;123.10;;;6.60;;
4603;SDS011;2314;48.272;11.562;2022-09-06T00:18:53;121.47;;;6.70;;
4603;SDS011;2314;48.272;11.562;2022-09-06T00:21:23;123.00;;;6.50;;
4603;SDS011;2314;48.272;11.562;2022-09-06T00:23:52;122.70;;;6.70;;
4603;SDS011;2314;48.272;11.562;2022-09-06T00:26:19;121.87;;;6.17;;
4603;SDS011;2314;48.272;11.562;2022-09-06T00:28:47;122.87;;;6.80;;
4603;SDS011;2314;48.272;11.562;2022-09-06T00:31:15;123.80;;;6.70;;
4603;SDS011;2314;48.272;11.562;2022-09-06T00:33:44;123.67;;;7.17;;
4603;SDS011;2314;48.272;11.562;2022-09-06T00:36:12;120.57;;;6.03;;
4603;SDS011;2314;48.272;11.562;2022-09-06T00:38:41;126.30;;;7.00;;
4603;SDS011;2314;48.272;11.562;2022-09-06T00:41:10;123.50;;;7.17;;
4603;SDS011;2314;48.272;11.562;2022-09-06T00:43:39;124.70;;;7.40;;
4603;SDS011;2314;48.272;11.562;2022-09-06T00:46:08;128.70;;;7.67;;
4603;SDS011;2314;48.272;11.562;2022-09-06T00:48:40;122.47;;;7.13;;
4603;SDS011;2314;48.272;11.562;2022-09-06T00:51:09;123.30;;;7.37;;
4603;SDS011;2314;48.272;11.562;2022-09-06T00:53:38;125.90;;;7.80;;
4603;SDS011;2314;48.272;11.562;2022-09-06T00:56:06;124.00;;;7.50;;
4603;SDS011;2314;48.272;11.562;2022-09-06T00:58:34;122.70;;;6.80;;
4603;SDS011;2314;48.272;11.562;2022-09-06T01:01:02;124.97;;;7.73;;
4603;SDS011;2314;48.272;11.562;2022-09-06T01:03:30;123.40;;;6.90;;
4603;SDS011;2314;48.272;11.562;2022-09-06T01:05:59;123.60;;;7.80;;
4603;SDS011;2314;48.272;11.562;2022-09-06T01:08:46;122.67;;;6.90;;
4603;SDS011;2314;48.272;11.562;2022-09-06T01:11:28;121.67;;;6.70;;
4603;SDS011;2314;48.272;11.562;2022-09-06T01:14:26;126.47;;;8.00;;
4603;SDS011;2314;48.272;11.562;2022-09-06T01:17:07;126.37;;;7.37;;
4603;SDS011;2314;48.272;11.562;2022-09-06T01:26:37;123.70;;;7.20;;
4603;SDS011;2314;48.272;11.562;2022-09-06T01:29:26;123.50;;;7.00;;
4603;SDS011;2314;48.272;11.562;2022-09-06T01:31:59;123.67;;;6.60;;
4603;SDS011;2314;48.272;11.562;2022-09-06T01:34:38;123.50;;;7.30;;
4603;SDS011;2314;48.272;11.562;2022-09-06T01:37:11;125.30;;;7.77;;
4603;SDS011;2314;48.272;11.562;2022-09-06T01:39:41;123.20;;;7.37;;
4603;SDS011;2314;48.272;11.562;2022-09-06T01:42:09;123.13;;;7.23;;
4603;SDS011;2314;48.272;11.562;2022-09-06T01:44:41;124.80;;;8.23;;
4603;SDS011;2314;48.272;11.562;2022-09-06T01:47:15;124.90;;;7.53;;
4603;SDS011;2314;48.272;11.562;2022-09-06T01:49:56;125.07;;;7.20;;
4603;SDS011;2314;48.272;11.562;2022-09-06T01:52:49;123.87;;;7.77;;
4603;SDS011;2314;48.272;11.562;2022-09-06T01:55:28;125.77;;;8.03;;
4603;SDS011;2314;48.272;11.562;2022-09-06T01:58:08;125.77;;;8.23;;
4603;SDS011;2314;48.272;11.562;2022-09-06T02:00:57;124.93;;;7.70;;
4603;SDS011;2314;48.272;11.562;2022-09-06T02:03:31;125.57;;;8.70;;
4603;SDS011;2314;48.272;11.562;2022-09-06T02:06:05;125.87;;;8.70;;
4603;SDS011;2314;48.272;11.562;2022-09-06T02:08:38;126.43;;;8.70;;
4603;SDS011;2314;48.272;11.562;2022-09-06T02:11:11;125.10;;;8.60;;
4603;SDS011;2314;48.272;11.562;2022-09-06T02:13:42;124.40;;;7.97;;
4603;SDS011;2314;48.272;11.562;2022-09-06T02:16:14;126.30;;;8.37;;
4603;SDS011;2314;48.272;11.562;2022-09-06T02:18:47;126.27;;;8.63;;
4603;SDS011;2314;48.272;11.562;2022-09-06T02:21:20;126.17;;;9.00;;
4603;SDS011;2314;48.272;11.562;2022-09-06T02:23:51;126.47;;;8.30;;
4603;SDS011;2314;48.272;11.562;2022-09-06T02:26:23;128.77;;;9.97;;
4603;SDS011;2314;48.272;11.562;2022-09-06T02:28:53;129.83;;;9.83;;
4603;SDS011;2314;48.272;11.562;2022-09-06T02:31:22;129.77;;;10.07;;
4603;SDS011;2314;48.272;11.562;2022-09-06T02:33:54;126.10;;;8.90;;
4603;SDS011;2314;48.272;11.562;2022-09-06T02:36:21;127.20;;;8.60;;
4603;SDS011;2314;48.272;11.562;2022-09-06T02:38:49;130.87;;;8.57;;
4603;SDS011;2314;48.272;11.562;2022-09-06T02:41:17;127.00;;;8.70;;
4603;SDS011;2314;48.272;11.562;2022-09-06T02:43:48;129.83;;;9.20;;
4603;SDS011;2314;48.272;11.562;2022-09-06T02:46:15;127.47;;;9.03;;
4603;SDS011;2314;48.272;11.562;2022-09-06T02:48:44;126.90;;;9.17;;
4603;SDS011;2314;48.272;11.562;2022-09-06T02:51:11;125.33;;;8.77;;
4603;SDS011;2314;48.272;11.562;2022-09-06T02:53:38;125.90;;;9.20;;
4603;SDS011;2314;48.272;11.562;2022-09-06T02:56:05;124.77;;;8.93;;
4603;SDS011;2314;48.272;11.562;2022-09-06T02:58:33;129.77;;;8.90;;
4603;SDS011;2314;48.272;11.562;2022-09-06T03:01:00;125.87;;;8.00;;
4603;SDS011;2314;48.272;11.562;2022-09-06T03:03:28;127.27;;;8.83;;
4603;SDS011;2314;48.272;11.562;2022-09-06T03:05:56;125.00;;;8.07;;
4603;SDS011;2314;48.272;11.562;2022-09-06T03:08:23;128.47;;;8.60;;
4603;SDS011;2314;48.272;11.562;2022-09-06T03:10:53;125.20;;;7.60;;
4603;SDS011;2314;48.272;11.562;2022-09-06T03:13:22;126.50;;;9.13;;
4603;SDS011;2314;48.272;11.562;2022-09-06T03:15:50;130.60;;;9.07;;
4603;SDS011;2314;48.272;11.562;2022-09-06T03:18:18;125.27;;;8.80;;
4603;SDS011;2314;48.272;11.562;2022-09-06T03:20:46;128.97;;;9.03;;
4603;SDS011;2314;48.272;11.562;2022-09-06T03:23:16;130.07;;;8.33;;
4603;SDS011;2314;48.272;11.562;2022-09-06T03:25:43;128.30;;;8.87;;
4603;SDS011;2314;48.272;11.562;2022-09-06T03:28:10;126.90;;;8.67;;
4603;SDS011;2314;48.272;11.562;2022-09-06T03:30:38;128.07;;;8.47;;
4603;SDS011;2314;48.272;11.562;2022-09-06T03:33:05;126.60;;;8.43;;
4603;SDS011;2314;48.272;11.562;2022-09-06T03:35:32;126.97;;;8.60;;
4603;SDS011;2314;48.272;11.562;2022-09-06T03:37:59;127.80;;;9.33;;
4603;SDS011;2314;48.272;11.562;2022-09-06T03:40:28;129.60;;;9.53;;
4603;SDS011;2314;48.272;11.562;2022-09-06T03:42:55;129.70;;;8.90;;
4603;SDS011;2314;48.272;11.562;2022-09-06T03:45:22;125.00;;;8.50;;
4603;SDS011;2314;48.272;11.562;2022-09-06T03:47:49;127.60;;;8.83;;
4603;SDS011;2314;48.272;11.562;2022-09-06T03:50:16;127.67;;;8.57;;
4603;SDS011;2314;48.272;11.562;2022-09-06T03:52:43;126.77;;;9.00;;
4603;SDS011;2314;48.272;11.562;2022-09-06T03:55:10;132.60;;;10.00;;
4603;SDS011;2314;48.272;11.562;2022-09-06T03:57:39;128.97;;;9.80;;
4603;SDS011;2314;48.272;11.562;2022-09-06T04:00:06;127.47;;;8.93;;
4603;SDS011;2314;48.272;11.562;2022-09-06T04:02:35;127.60;;;8.70;;
4603;SDS011;2314;48.272;11.562;2022-09-06T04:05:02;126.70;;;8.67;;
4603;SDS011;2314;48.272;11.562;2022-09-06T04:07:30;127.90;;;8.57;;
4603;SDS011;2314;48.272;11.562;2022-09-06T04:09:57;125.13;;;8.43;;
4603;SDS011;2314;48.272;11.562;2022-09-06T04:12:24;130.63;;;8.30;;
4603;SDS011;2314;48.272;11.562;2022-09-06T04:14:54;126.10;;;8.90;;
4603;SDS011;2314;48.272;11.562;2022-09-06T04:17:21;131.07;;;9.50;;
4603;SDS011;2314;48.272;11.562;2022-09-06T04:19:48;127.70;;;9.10;;
4603;SDS011;2314;48.272;11.562;2022-09-06T04:22:15;130.50;;;9.80;;
4603;SDS011;2314;48.272;11.562;2022-09-06T04:24:42;125.90;;;8.40;;
4603;SDS011;2314;48.272;11.562;2022-09-06T04:27:09;127.73;;;8.60;;
4603;SDS011;2314;48.272;11.562;2022-09-06T04:29:36;126.77;;;9.23;;
4603;SDS011;2314;48.272;11.562;2022-09-06T04:32:05;128.77;;;8.47;;
4603;SDS011;2314;48.272;11.562;2022-09-06T04:34:32;132.90;;;8.30;;
4603;SDS011;2314;48.272;11.562;2022-09-06T04:36:59;127.77;;;8.83;;
4603;SDS011;2314;48.272;11.562;2022-09-06T04:39:26;128.80;;;9.67;;
4603;SDS011;2314;48.272;11.562;2022-09-06T04:41:53;129.47;;;9.03;;
4603;SDS011;2314;48.272;11.562;2022-09-06T04:44:20;128.07;;;9.10;;
4603;SDS011;2314;48.272;11.562;2022-09-06T04:46:47;126.87;;;8.90;;
4603;SDS011;2314;48.272;11.562;2022-09-06T04:49:16;130.57;;;9.13;;
4603;SDS011;2314;48.272;11.562;2022-09-06T04:51:43;127.43;;;8.40;;
4603;SDS011;2314;48.272;11.562;2022-09-06T04:54:10;126.77;;;8.47;;
4603;SDS011;2314;48.272;11.562;2022-09-06T04:56:37;130.00;;;9.80;;
4603;SDS011;2314;48.272;11.562;2022-09-06T04:59:04;128.57;;;9.40;;
4603;SDS011;2314;48.272;11.562;2022-09-06T05:01:31;126.77;;;9.63;;
4603;SDS011;2314;48.272;11.562;2022-09-06T05:03:58;129.80;;;9.30;;
4603;SDS011;2314;48.272;11.562;2022-09-06T05:06:26;127.07;;;8.70;;
4603;SDS011;2314;48.272;11.562;2022-09-06T05:08:53;125.13;;;8.70;;
4603;SDS011;2314;48.272;11.562;2022-09-06T05:11:21;127.67;;;9.03;;
4603;SDS011;2314;48.272;11.562;2022-09-06T05:13:48;126.47;;;8.40;;
4603;SDS011;2314;48.272;11.562;2022-09-06T05:16:15;128.10;;;8.90;;
4603;SDS011;2314;48.272;11.562;2022-09-06T05:18:42;127.27;;;9.03;;
4603;SDS011;2314;48.272;11.562;2022-09-06T05:21:09;133.27;;;8.50;;
4603;SDS011;2314;48.272;11.562;2022-09-06T05:23:37;127.07;;;9.23;;
4603;SDS011;2314;48.272;11.562;2022-09-06T05:26:04;128.00;;;9.10;;
4603;SDS011;2314;48.272;11.562;2022-09-06T05:28:31;124.87;;;8.17;;
4603;SDS011;2314;48.272;11.562;2022-09-06T05:31:05;125.07;;;8.63;;
4603;SDS011;2314;48.272;11.562;2022-09-06T05:33:34;125.17;;;8.60;;
4603;SDS011;2314;48.272;11.562;2022-09-06T05:36:02;127.77;;;8.83;;
4603;SDS011;2314;48.272;11.562;2022-09-06T05:38:29;129.53;;;8.10;;
4603;SDS011;2314;48.272;11.562;2022-09-06T05:40:58;125.40;;;7.83;;
4603;SDS011;2314;48.272;11.562;2022-09-06T05:43:25;128.93;;;9.43;;
4603;SDS011;2314;48.272;11.562;2022-09-06T05:45:52;128.90;;;9.97;;
4603;SDS011;2314;48.272;11.562;2022-09-06T05:48:19;131.47;;;9.50;;
4603;SDS011;2314;48.272;11.562;2022-09-06T05:50:46;128.47;;;9.50;;
4603;SDS011;2314;48.272;11.562;2022-09-06T05:53:13;126.30;;;9.70;;
4603;SDS011;2314;48.272;11.562;2022-09-06T05:55:40;125.77;;;9.70;;
4603;SDS011;2314;48.272;11.562;2022-09-06T05:58:09;129.80;;;9.67;;
4603;SDS011;2314;48.272;11.562;2022-09-06T06:00:36;125.47;;;9.30;;
4603;SDS011;2314;48.272;11.562;2022-09-06T06:03:04;125.90;;;9.07;;
4603;SDS011;2314;48.272;11.562;2022-09-06T06:05:31;127.77;;;9.40;;
4603;SDS011;2314;48.272;11.562;2022-09-06T06:07:58;126.47;;;9.00;;
4603;SDS011;2314;48.272;11.562;2022-09-06T06:10:25;128.80;;;9.13;;
4603;SDS011;2314;48.272;11.562;2022-09-06T06:12:52;122.97;;;8.47;;
4603;SDS011;2314;48.272;11.562;2022-09-06T06:15:20;124.40;;;9.07;;
4603;SDS011;2314;48.272;11.562;2022-09-06T06:17:47;133.33;;;10.63;;
4603;SDS011;2314;48.272;11.562;2022-09-06T06:20:14;123.70;;;8.80;;
4603;SDS011;2314;48.272;11.562;2022-09-06T06:22:41;122.37;;;7.90;;
4603;SDS011;2314;48.272;11.562;2022-09-06T06:25:08;130.60;;;8.20;;
4603;SDS011;2314;48.272;11.562;2022-09-06T06:27:35;125.27;;;7.53;;
4603;SDS011;2314;48.272;11.562;2022-09-06T06:30:03;124.07;;;7.23;;
4603;SDS011;2314;48.272;11.562;2022-09-06T06:32:32;123.33;;;7.17;;
4603;SDS011;2314;48.272;11.562;2022-09-06T06:34:59;124.40;;;7.93;;
4603;SDS011;2314;48.272;11.562;2022-09-06T06:37:26;122.77;;;6.83;;
4603;SDS011;2314;48.272;11.562;2022-09-06T06:39:53;123.37;;;7.03;;
4603;SDS011;2314;48.272;11.562;2022-09-06T06:42:20;120.10;;;6.57;;
4603;SDS011;2314;48.272;11.562;2022-09-06T06:44:47;124.47;;;7.40;;
4603;SDS011;2314;48.272;11.562;2022-09-06T06:47:17;122.10;;;7.20;;
4603;SDS011;2314;48.272;11.562;2022-09-06T06:49:45;122.77;;;6.80;;
4603;SDS011;2314;48.272;11.562;2022-09-06T06:52:13;120.97;;;6.97;;
4603;SDS011;2314;48.272;11.562;2022-09-06T06:54:40;122.40;;;6.83;;
4603;SDS011;2314;48.272;11.562;2022-09-06T06:57:07;120.57;;;6.50;;
4603;SDS011;2314;48.272;11.562;2022-09-06T06:59:34;122.90;;;6.90;;
4603;SDS011;2314;48.272;11.562;2022-09-06T07:02:02;122.17;;;6.20;;
4603;SDS011;2314;48.272;11.562;2022-09-06T07:04:29;117.57;;;5.43;;
4603;SDS011;2314;48.272;11.562;2022-09-06T07:06:58;116.80;;;5.37;;
4603;SDS011;2314;48.272;11.562;2022-09-06T07:09:25;115.70;;;4.60;;
4603;SDS011;2314;48.272;11.562;2022-09-06T07:11:52;127.27;;;4.33;;
4603;SDS011;2314;48.272;11.562;2022-09-06T07:14:19;115.57;;;4.40;;
4603;SDS011;2314;48.272;11.562;2022-09-06T07:16:46;113.97;;;3.90;;
4603;SDS011;2314;48.272;11.562;2022-09-06T07:19:15;113.27;;;3.93;;
4603;SDS011;2314;48.272;11.562;2022-09-06T07:21:42;118.90;;;3.57;;
4603;SDS011;2314;48.272;11.562;2022-09-06T07:24:11;111.77;;;3.53;;
4603;SDS011;2314;48.272;11.562;2022-09-06T07:26:38;111.67;;;3.40;;
4603;SDS011;2314;48.272;11.562;2022-09-06T07:29:06;114.30;;;4.10;;
4603;SDS011;2314;48.272;11.562;2022-09-06T07:31:34;112.30;;;3.33;;
4603;SDS011;2314;48.272;11.562;2022-09-06T07:34:03;112.70;;;3.57;;
4603;SDS011;2314;48.272;11.562;2022-09-06T07:36:32;111.83;;;3.60;;
4603;SDS011;2314;48.272;11.562;2022-09-06T07:38:59;111.63;;;3.30;;
4603;SDS011;2314;48.272;11.562;2022-09-06T07:41:27;111.90;;;3.67;;
4603;SDS011;2314;48.272;11.562;2022-09-06T07:43:55;111.87;;;3.50;;
4603;SDS011;2314;48.272;11.562;2022-09-06T07:46:22;111.73;;;2.90;;
4603;SDS011;2314;48.272;11.562;2022-09-06T07:48:49;111.43;;;3.30;;
4603;SDS011;2314;48.272;11.562;2022-09-06T07:51:18;114.97;;;3.43;;
4603;SDS011;2314;48.272;11.562;2022-09-06T07:53:47;113.33;;;3.60;;
4603;SDS011;2314;48.272;11.562;2022-09-06T07:56:16;109.87;;;2.83;;
4603;SDS011;2314;48.272;11.562;2022-09-06T07:58:48;112.07;;;3.50;;
4603;SDS011;2314;48.272;11.562;2022-09-06T08:01:16;113.90;;;3.50;;
4603;SDS011;2314;48.272;11.562;2022-09-06T08:03:52;116.70;;;3.30;;
4603;SDS011;2314;48.272;11.562;2022-09-06T08:06:19;112.07;;;3.57;;
4603;SDS011;2314;48.272;11.562;2022-09-06T08:08:47;116.13;;;3.73;;
4603;SDS011;2314;48.272;11.562;2022-09-06T08:11:15;111.07;;;3.03;;
4603;SDS011;2314;48.272;11.562;2022-09-06T08:13:43;111.63;;;3.47;;
4603;SDS011;2314;48.272;11.562;2022-09-06T08:16:16;117.07;;;3.63;;
4603;SDS011;2314;48.272;11.562;2022-09-06T08:18:44;109.97;;;2.70;;
4603;SDS011;2314;48.272;11.562;2022-09-06T08:21:15;108.97;;;2.93;;
4603;SDS011;2314;48.272;11.562;2022-09-06T08:23:44;108.20;;;2.97;;
4603;SDS011;2314;48.272;11.562;2022-09-06T08:26:12;108.23;;;3.23;;
4603;SDS011;2314;48.272;11.562;2022-09-06T08:28:40;110.93;;;3.00;;
4603;SDS011;2314;48.272;11.562;2022-09-06T08:31:09;103.67;;;2.20;;
4603;SDS011;2314;48.272;11.562;2022-09-06T08:33:38;110.87;;;2.60;;
4603;SDS011;2314;48.272;11.562;2022-09-06T08:36:06;107.70;;;2.40;;
4603;SDS011;2314;48.272;11.562;2022-09-06T08:38:34;113.70;;;3.03;;
4603;SDS011;2314;48.272;11.562;2022-09-06T08:41:05;129.63;;;2.63;;
4603;SDS011;2314;48.272;11.562;2022-09-06T08:43:35;108.07;;;2.77;;
4603;SDS011;2314;48.272;11.562;2022-09-06T08:46:03;107.40;;;2.80;;
4603;SDS011;2314;48.272;11.562;2022-09-06T08:48:34;105.47;;;2.43;;
4603;SDS011;2314;48.272;11.562;2022-09-06T08:51:10;108.30;;;2.60;;
4603;SDS011;2314;48.272;11.562;2022-09-06T08:54:05;106.50;;;2.37;;
4603;SDS011;2314;48.272;11.562;2022-09-06T08:56:41;109.60;;;2.60;;
4603;SDS011;2314;48.272;11.562;2022-09-06T08:59:26;107.13;;;2.67;;
4603;SDS011;2314;48.272;11.562;2022-09-06T09:01:56;105.80;;;2.40;;
4603;SDS011;2314;48.272;11.562;2022-09-06T09:04:37;109.07;;;2.53;;
4603;SDS011;2314;48.272;11.562;2022-09-06T09:07:12;104.57;;;2.40;;
4603;SDS011;2314;48.272;11.562;2022-09-06T09:10:07;104.47;;;2.67;;
4603;SDS011;2314;48.272;11.562;2022-09-06T09:12:41;106.97;;;2.87;;
4603;SDS011;2314;48.272;11.562;2022-09-06T09:15:13;101.03;;;2.13;;
4603;SDS011;2314;48.272;11.562;2022-09-06T09:17:43;104.47;;;2.63;;
4603;SDS011;2314;48.272;11.562;2022-09-06T09:20:13;105.13;;;2.43;;
4603;SDS011;2314;48.272;11.562;2022-09-06T09:22:41;106.40;;;2.70;;
4603;SDS011;2314;48.272;11.562;2022-09-06T09:25:11;103.03;;;2.20;;
4603;SDS011;2314;48.272;11.562;2022-09-06T09:27:44;103.27;;;2.10;;
4603;SDS011;2314;48.272;11.562;2022-09-06T09:30:14;103.10;;;2.30;;
4603;SDS011;2314;48.272;11.562;2022-09-06T09:32:42;100.83;;;2.10;;
4603;SDS011;2314;48.272;11.562;2022-09-06T09:35:20;101.93;;;2.00;;
4603;SDS011;2314;48.272;11.562;2022-09-06T09:37:56;99.67;;;1.90;;
4603;SDS011;2314;48.272;11.562;2022-09-06T09:40:29;96.90;;;1.80;;
4603;SDS011;2314;48.272;11.562;2022-09-06T09:43:13;94.67;;;1.97;;
4603;SDS011;2314;48.272;11.562;2022-09-06T09:45:43;94.20;;;1.63;;
4603;SDS011;2314;48.272;11.562;2022-09-06T09:48:18;91.57;;;1.43;;
4603;SDS011;2314;48.272;11.562;2022-09-06T09:50:52;92.67;;;1.47;;
4603;SDS011;2314;48.272;11.562;2022-09-06T09:53:21;88.80;;;1.50;;
4603;SDS011;2314;48.272;11.562;2022-09-06T09:55:53;90.10;;;1.50;;
4603;SDS011;2314;48.272;11.562;2022-09-06T09:58:26;89.20;;;1.70;;
4603;SDS011;2314;48.272;11.562;2022-09-06T10:01:16;88.87;;;1.50;;
4603;SDS011;2314;48.272;11.562;2022-09-06T10:03:47;91.83;;;1.80;;
4603;SDS011;2314;48.272;11.562;2022-09-06T10:06:23;89.10;;;1.53;;
4603;SDS011;2314;48.272;11.562;2022-09-06T10:08:51;92.00;;;1.60;;
4603;SDS011;2314;48.272;11.562;2022-09-06T10:14:09;86.37;;;1.60;;
4603;SDS011;2314;48.272;11.562;2022-09-06T10:16:41;91.43;;;2.00;;
4603;SDS011;2314;48.272;11.562;2022-09-06T10:19:23;85.73;;;1.50;;
4603;SDS011;2314;48.272;11.562;2022-09-06T10:22:07;85.77;;;1.73;;
4603;SDS011;2314;48.272;11.562;2022-09-06T10:27:47;90.03;;;2.00;;
4603;SDS011;2314;48.272;11.562;2022-09-06T10:30:44;83.10;;;1.50;;
4603;SDS011;2314;48.272;11.562;2022-09-06T10:33:25;86.80;;;1.67;;
4603;SDS011;2314;48.272;11.562;2022-09-06T10:36:01;84.50;;;1.90;;
4603;SDS011;2314;48.272;11.562;2022-09-06T10:38:39;84.90;;;1.80;;
4603;SDS011;2314;48.272;11.562;2022-09-06T10:41:24;85.43;;;1.70;;
4603;SDS011;2314;48.272;11.562;2022-09-06T10:44:03;87.87;;;1.40;;
4603;SDS011;2314;48.272;11.562;2022-09-06T10:46:46;85.30;;;1.40;;
4603;SDS011;2314;48.272;11.562;2022-09-06T10:49:18;84.30;;;1.80;;
4603;SDS011;2314;48.272;11.562;2022-09-06T10:51:46;86.07;;;1.60;;
4603;SDS011;2314;48.272;11.562;2022-09-06T10:54:20;84.43;;;1.50;;
4603;SDS011;2314;48.272;11.562;2022-09-06T10:56:49;87.60;;;1.70;;
4603;SDS011;2314;48.272;11.562;2022-09-06T10:59:21;85.50;;;1.53;;
4603;SDS011;2314;48.272;11.562;2022-09-06T11:01:55;86.90;;;1.50;;
4603;SDS011;2314;48.272;11.562;2022-09-06T11:04:36;86.67;;;1.67;;
4603;SDS011;2314;48.272;11.562;2022-09-06T11:07:09;83.93;;;1.90;;
4603;SDS011;2314;48.272;11.562;2022-09-06T11:09:43;83.43;;;1.37;;
4603;SDS011;2314;48.272;11.562;2022-09-06T11:12:15;84.77;;;1.70;;
4603;SDS011;2314;48.272;11.562;2022-09-06T11:14:50;89.53;;;1.60;;
4603;SDS011;2314;48.272;11.562;2022-09-06T11:17:19;85.40;;;1.93;;
4603;SDS011;2314;48.272;11.562;2022-09-06T11:19:57;84.17;;;1.57;;
4603;SDS011;2314;48.272;11.562;2022-09-06T11:29:00;84.67;;;1.80;;
4603;SDS011;2314;48.272;11.562;2022-09-06T11:31:30;86.93;;;1.90;;
4603;SDS011;2314;48.272;11.562;2022-09-06T11:34:03;85.03;;;1.60;;
4603;SDS011;2314;48.272;11.562;2022-09-06T11:36:35;84.90;;;1.63;;
4603;SDS011;2314;48.272;11.562;2022-09-06T11:39:05;88.20;;;2.00;;
4603;SDS011;2314;48.272;11.562;2022-09-06T11:41:36;89.10;;;2.40;;
4603;SDS011;2314;48.272;11.562;2022-09-06T11:44:06;87.13;;;1.70;;
4603;SDS011;2314;48.272;11.562;2022-09-06T11:49:35;88.37;;;1.70;;
4603;SDS011;2314;48.272;11.562;2022-09-06T11:55:23;95.03;;;2.00;;
4603;SDS011;2314;48.272;11.562;2022-09-06T11:58:01;91.97;;;1.83;;
4603;SDS011;2314;48.272;11.562;2022-09-06T12:00:31;94.93;;;2.23;;
4603;SDS011;2314;48.272;11.562;2022-09-06T12:02:58;92.80;;;2.03;;
4603;SDS011;2314;48.272;11.562;2022-09-06T12:05:26;90.07;;;1.90;;
4603;SDS011;2314;48.272;11.562;2022-09-06T12:11:03;93.97;;;2.20;;
4603;SDS011;2314;48.272;11.562;2022-09-06T12:13:50;91.50;;;2.23;;
4603;SDS011;2314;48.272;11.562;2022-09-06T12:16:21;91.87;;;2.03;;
4603;SDS011;2314;48.272;11.562;2022-09-06T12:18:53;89.10;;;2.00;;
4603;SDS011;2314;48.272;11.562;2022-09-06T12:21:35;92.17;;;2.47;;
4603;SDS011;2314;48.272;11.562;2022-09-06T12:27:18;96.33;;;2.00;;
4603;SDS011;2314;48.272;11.562;2022-09-06T12:29:49;92.60;;;1.93;;
4603;SDS011;2314;48.272;11.562;2022-09-06T12:32:24;97.10;;;2.40;;
4603;SDS011;2314;48.272;11.562;2022-09-06T12:34:54;92.87;;;2.37;;
4603;SDS011;2314;48.272;11.562;2022-09-06T12:37:29;99.47;;;2.07;;
4603;SDS011;2314;48.272;11.562;2022-09-06T12:39:59;109.13;;;3.43;;
4603;SDS011;2314;48.272;11.562;2022-09-06T12:42:26;93.80;;;2.20;;
4603;SDS011;2314;48.272;11.562;2022-09-06T12:44:55;92.40;;;1.97;;
4603;SDS011;2314;48.272;11.562;2022-09-06T12:47:24;93.60;;;2.27;;
4603;SDS011;2314;48.272;11.562;2022-09-06T12:50:06;93.00;;;2.30;;
4603;SDS011;2314;48.272;11.562;2022-09-06T12:52:48;98.80;;;2.30;;
4603;SDS011;2314;48.272;11.562;2022-09-06T12:55:20;93.20;;;2.50;;
4603;SDS011;2314;48.272;11.562;2022-09-06T12:57:50;94.57;;;2.67;;
4603;SDS011;2314;48.272;11.562;2022-09-06T13:00:21;93.77;;;2.53;;
4603;SDS011;2314;48.272;11.562;2022-09-06T13:02:55;98.33;;;2.73;;
4603;SDS011;2314;48.272;11.562;2022-09-06T13:05:30;103.67;;;2.97;;
4603;SDS011;2314;48.272;11.562;2022-09-06T13:07:58;94.67;;;2.50;;
4603;SDS011;2314;48.272;11.562;2022-09-06T13:10:28;100.37;;;2.63;;
4603;SDS011;2314;48.272;11.562;2022-09-06T13:12:55;106.93;;;2.60;;
4603;SDS011;2314;48.272;11.562;2022-09-06T13:15:25;126.77;;;3.30;;
4603;SDS011;2314;48.272;11.562;2022-09-06T13:20:57;99.10;;;2.20;;
4603;SDS011;2314;48.272;11.562;2022-09-06T13:23:27;99.80;;;2.53;;
4603;SDS011;2314;48.272;11.562;2022-09-06T13:25:56;99.10;;;3.00;;
4603;SDS011;2314;48.272;11.562;2022-09-06T13:28:24;104.87;;;3.80;;
4603;SDS011;2314;48.272;11.562;2022-09-06T13:31:04;101.60;;;3.00;;
4603;SDS011;2314;48.272;11.562;2022-09-06T13:33:34;96.90;;;2.70;;
4603;SDS011;2314;48.272;11.562;2022-09-06T13:36:07;101.37;;;2.80;;
4603;SDS011;2314;48.272;11.562;2022-09-06T13:38:46;100.27;;;2.77;;
4603;SDS011;2314;48.272;11.562;2022-09-06T13:41:34;108.37;;;3.67;;
4603;SDS011;2314;48.272;11.562;2022-09-06T13:44:05;99.93;;;2.90;;
4603;SDS011;2314;48.272;11.562;2022-09-06T13:46:45;104.40;;;2.90;;
4603;SDS011;2314;48.272;11.562;2022-09-06T13:49:12;100.20;;;2.87;;
4603;SDS011;2314;48.272;11.562;2022-09-06T13:51:39;102.90;;;3.00;;
4603;SDS011;2314;48.272;11.562;2022-09-06T13:54:08;108.87;;;2.47;;
4603;SDS011;2314;48.272;11.562;2022-09-06T13:56:38;106.07;;;3.30;;
4603;SDS011;2314;48.272;11.562;2022-09-06T13:59:07;103.07;;;2.73;;
4603;SDS011;2314;48.272;11.562;2022-09-06T14:01:35;103.23;;;2.63;;
4603;SDS011;2314;48.272;11.562;2022-09-06T14:04:10;114.33;;;3.20;;
4603;SDS011;2314;48.272;11.562;2022-09-06T14:06:40;103.47;;;2.80;;
4603;SDS011;2314;48.272;11.562;2022-09-06T14:09:07;103.07;;;2.50;;
4603;SDS011;2314;48.272;11.562;2022-09-06T14:11:34;100.73;;;2.50;;
4603;SDS011;2314;48.272;11.562;2022-09-06T14:14:02;106.17;;;2.50;;
4603;SDS011;2314;48.272;11.562;2022-09-06T14:16:29;100.23;;;2.40;;
4603;SDS011;2314;48.272;11.562;2022-09-06T14:18:57;116.57;;;3.03;;
4603;SDS011;2314;48.272;11.562;2022-09-06T14:21:26;103.93;;;3.00;;
4603;SDS011;2314;48.272;11.562;2022-09-06T14:23:53;98.87;;;2.33;;
4603;SDS011;2314;48.272;11.562;2022-09-06T14:26:21;104.10;;;2.53;;
4603;SDS011;2314;48.272;11.562;2022-09-06T14:28:48;101.77;;;2.67;;
4603;SDS011;2314;48.272;11.562;2022-09-06T14:31:16;109.40;;;2.50;;
4603;SDS011;2314;48.272;11.562;2022-09-06T14:33:46;103.83;;;2.80;;
4603;SDS011;2314;48.272;11.562;2022-09-06T14:36:14;104.87;;;2.43;;
4603;SDS011;2314;48.272;11.562;2022-09-06T14:38:45;101.00;;;2.53;;
4603;SDS011;2314;48.272;11.562;2022-09-06T14:41:13;101.60;;;2.77;;
4603;SDS011;2314;48.272;11.562;2022-09-06T14:43:42;103.77;;;2.87;;
4603;SDS011;2314;48.272;11.562;2022-09-06T14:46:14;104.77;;;2.70;;
4603;SDS011;2314;48.272;11.562;2022-09-06T14:48:43;102.07;;;2.60;;
4603;SDS011;2314;48.272;11.562;2022-09-06T14:51:12;106.20;;;3.07;;
4603;SDS011;2314;48.272;11.562;2022-09-06T14:53:46;97.20;;;2.13;;
4603;SDS011;2314;48.272;11.562;2022-09-06T14:56:15;104.00;;;2.60;;
4603;SDS011;2314;48.272;11.562;2022-09-06T14:58:42;103.20;;;2.80;;
4603;SDS011;2314;48.272;11.562;2022-09-06T15:01:11;102.57;;;2.63;;
4603;SDS011;2314;48.272;11.562;2022-09-06T15:03:40;107.47;;;3.50;;
4603;SDS011;2314;48.272;11.562;2022-09-06T15:06:10;111.23;;;2.80;;
4603;SDS011;2314;48.272;11.562;2022-09-06T15:08:38;101.87;;;2.53;;
4603;SDS011;2314;48.272;11.562;2022-09-06T15:11:06;112.23;;;2.50;;
4603;SDS011;2314;48.272;11.562;2022-09-06T15:13:35;103.87;;;3.90;;
4603;SDS011;2314;48.272;11.562;2022-09-06T15:16:04;102.83;;;2.50;;
4603;SDS011;2314;48.272;11.562;2022-09-06T15:18:32;107.23;;;2.73;;
4603;SDS011;2314;48.272;11.562;2022-09-06T15:21:06;104.17;;;2.40;;
4603;SDS011;2314;48.272;11.562;2022-09-06T15:23:34;104.37;;;2.73;;
4603;SDS011;2314;48.272;11.562;2022-09-06T15:26:01;109.90;;;2.47;;
4603;SDS011;2314;48.272;11.562;2022-09-06T15:28:30;105.00;;;2.70;;
4603;SDS011;2314;48.272;11.562;2022-09-06T15:30:59;103.80;;;2.37;;
4603;SDS011;2314;48.272;11.562;2022-09-06T15:33:27;110.00;;;2.63;;